createdAt,value
2024-02-01T00:01:49.219Z,8.33
2024-02-01T00:04:18.397Z,9.30
2024-02-01T00:06:51.856Z,8.70
2024-02-01T00:09:20.663Z,10.07
2024-02-01T00:11:48.614Z,8.53
2024-02-01T00:14:17.022Z,9.97
2024-02-01T00:16:45.279Z,8.80
2024-02-01T00:19:13.538Z,9.00
2024-02-01T00:21:42.893Z,8.43
2024-02-01T00:24:11.173Z,11.33
2024-02-01T00:26:39.111Z,10.17
2024-02-01T00:29:07.750Z,9.80
2024-02-01T00:31:35.465Z,12.10
2024-02-01T00:34:04.625Z,12.97
2024-02-01T00:36:32.605Z,11.30
2024-02-01T00:39:01.792Z,12.30
2024-02-01T00:41:29.789Z,11.40
2024-02-01T00:43:58.054Z,9.30
2024-02-01T00:46:25.832Z,14.87
2024-02-01T00:48:53.813Z,10.43
2024-02-01T00:51:21.941Z,9.33
2024-02-01T00:53:50.441Z,14.23
2024-02-01T00:56:19.557Z,12.67
2024-02-01T00:58:48.298Z,9.13
2024-02-01T01:01:16.413Z,10.10
2024-02-01T01:03:44.597Z,7.43
2024-02-01T01:06:12.625Z,9.50
2024-02-01T01:08:40.417Z,15.80
2024-02-01T01:11:08.171Z,12.73
2024-02-01T01:13:37.716Z,14.37
2024-02-01T01:16:06.510Z,14.47
2024-02-01T01:18:34.732Z,12.30
2024-02-01T01:21:02.923Z,10.53
2024-02-01T01:23:30.924Z,10.33
2024-02-01T01:25:58.771Z,15.87
2024-02-01T01:28:26.777Z,10.87
2024-02-01T01:30:55.886Z,12.03
2024-02-01T01:33:23.753Z,16.63
2024-02-01T01:35:52.123Z,17.53
2024-02-01T01:38:20.046Z,11.33
2024-02-01T01:40:48.138Z,12.47
2024-02-01T01:43:16.100Z,15.60
2024-02-01T01:45:44.144Z,11.37
2024-02-01T01:48:13.534Z,12.57
2024-02-01T01:50:42.685Z,13.03
2024-02-01T01:53:11.361Z,15.47
2024-02-01T01:55:39.033Z,10.17
2024-02-01T01:58:07.388Z,11.90
2024-02-01T02:00:35.855Z,13.27
2024-02-01T02:03:04.799Z,10.50
2024-02-01T02:05:34.170Z,9.77
2024-02-01T02:08:02.009Z,13.30
2024-02-01T02:10:30.370Z,13.70
2024-02-01T02:12:59.737Z,12.23
2024-02-01T02:15:32.383Z,12.60
2024-02-01T02:18:00.731Z,17.43
2024-02-01T02:20:30.602Z,11.40
2024-02-01T02:23:00.239Z,16.57
2024-02-01T02:25:28.016Z,14.23
2024-02-01T02:27:56.159Z,13.10
2024-02-01T02:30:24.599Z,19.17
2024-02-01T02:32:54.969Z,13.67
2024-02-01T02:35:22.958Z,12.80
2024-02-01T02:37:51.110Z,16.70
2024-02-01T02:40:21.177Z,15.63
2024-02-01T02:42:49.364Z,19.13
2024-02-01T02:45:18.800Z,18.37
2024-02-01T02:47:47.807Z,18.37
2024-02-01T02:50:16.324Z,18.73
2024-02-01T02:52:45.404Z,38.03
2024-02-01T02:55:17.298Z,18.80
2024-02-01T02:57:46.477Z,25.37
2024-02-01T03:00:20.041Z,21.90
2024-02-01T03:02:50.407Z,19.73
2024-02-01T03:05:19.071Z,22.37
2024-02-01T03:07:47.043Z,21.20
2024-02-01T03:10:18.667Z,21.27
2024-02-01T03:12:48.204Z,24.73
2024-02-01T03:15:16.526Z,24.30
2024-02-01T03:17:46.653Z,32.47
2024-02-01T03:20:19.364Z,21.63
2024-02-01T03:22:48.985Z,37.47
2024-02-01T03:25:16.929Z,22.67
2024-02-01T03:27:45.061Z,23.67
2024-02-01T03:30:16.844Z,21.60
2024-02-01T03:32:46.381Z,23.67
2024-02-01T03:38:05.945Z,21.17
2024-02-01T03:40:39.956Z,21.43
2024-02-01T03:43:07.893Z,22.93
2024-02-01T03:45:37.005Z,27.90
2024-02-01T03:48:05.699Z,31.97
2024-02-01T03:50:39.207Z,30.47
2024-02-01T03:53:12.023Z,29.43
2024-02-01T03:55:41.548Z,26.17
2024-02-01T03:58:09.594Z,23.47
2024-02-01T04:00:39.583Z,29.80
2024-02-01T04:03:14.747Z,33.87
2024-02-01T04:05:43.305Z,32.20
2024-02-01T04:08:13.447Z,34.53
2024-02-01T04:10:41.300Z,31.40
2024-02-01T04:13:09.923Z,33.90
2024-02-01T04:15:39.064Z,30.60
2024-02-01T04:18:08.851Z,27.87
2024-02-01T04:20:37.555Z,30.67
2024-02-01T04:23:05.395Z,41.37
2024-02-01T04:25:33.370Z,28.27
2024-02-01T04:28:02.901Z,42.53
2024-02-01T04:30:30.601Z,28.83
2024-02-01T04:32:59.798Z,35.67
2024-02-01T04:35:29.745Z,46.73
2024-02-01T04:37:57.626Z,31.30
2024-02-01T04:40:26.367Z,31.90
2024-02-01T04:42:56.444Z,37.30
2024-02-01T04:45:24.342Z,31.47
2024-02-01T04:47:52.262Z,34.63
2024-02-01T04:50:21.844Z,34.27
2024-02-01T04:52:50.543Z,37.63
2024-02-01T04:55:18.302Z,32.57
2024-02-01T04:57:46.285Z,39.47
2024-02-01T05:00:19.340Z,48.13
2024-02-01T05:02:50.620Z,39.30
2024-02-01T05:05:19.263Z,35.10
2024-02-01T05:07:49.329Z,50.17
2024-02-01T05:10:17.352Z,36.83
2024-02-01T05:12:45.314Z,40.17
2024-02-01T05:15:14.186Z,40.97
2024-02-01T05:17:42.780Z,39.23
2024-02-01T05:20:12.194Z,38.47
2024-02-01T05:22:40.253Z,37.33
2024-02-01T05:25:17.093Z,38.80
2024-02-01T05:27:46.070Z,43.70
2024-02-01T05:30:16.005Z,41.87
2024-02-01T05:32:53.341Z,42.20
2024-02-01T05:35:29.618Z,40.47
2024-02-01T05:37:58.963Z,41.07
2024-02-01T05:40:28.157Z,36.37
2024-02-01T05:42:56.802Z,38.90
2024-02-01T05:45:30.272Z,41.33
2024-02-01T05:47:59.523Z,46.40
2024-02-01T05:50:27.671Z,42.43
2024-02-01T05:52:56.107Z,40.30
2024-02-01T05:55:23.967Z,45.27
2024-02-01T05:57:53.208Z,43.60
2024-02-01T06:00:24.322Z,47.43
2024-02-01T06:02:53.521Z,47.03
2024-02-01T06:05:21.813Z,46.80
2024-02-01T06:07:50.357Z,51.13
2024-02-01T06:10:18.342Z,43.87
2024-02-01T06:12:46.172Z,38.60
2024-02-01T06:15:15.655Z,40.80
2024-02-01T06:17:43.640Z,45.13
2024-02-01T06:20:12.022Z,41.20
2024-02-01T06:22:40.422Z,41.67
2024-02-01T06:25:12.559Z,40.13
2024-02-01T06:27:40.606Z,44.33
2024-02-01T06:30:11.973Z,52.30
2024-02-01T06:32:42.179Z,46.50
2024-02-01T06:35:18.405Z,47.87
2024-02-01T06:37:53.296Z,46.07
2024-02-01T06:40:38.718Z,48.97
2024-02-01T06:43:13.604Z,41.13
2024-02-01T06:45:49.549Z,48.00
2024-02-01T06:48:23.854Z,46.40
2024-02-01T06:50:59.340Z,44.50
2024-02-01T06:53:35.556Z,47.10
2024-02-01T06:56:14.754Z,42.87
2024-02-01T06:58:49.871Z,48.23
2024-02-01T07:01:35.103Z,44.07
2024-02-01T07:04:17.874Z,44.50
2024-02-01T07:07:18.647Z,40.50
2024-02-01T07:09:58.807Z,48.03
2024-02-01T07:12:41.340Z,49.13
2024-02-01T07:15:23.626Z,46.73
2024-02-01T07:17:59.894Z,47.20
2024-02-01T07:20:37.933Z,43.70
2024-02-01T07:23:27.173Z,43.20
2024-02-01T07:26:04.763Z,42.30
2024-02-01T07:28:50.635Z,39.40
2024-02-01T07:31:36.694Z,39.67
2024-02-01T07:34:22.126Z,39.10
2024-02-01T07:37:09.568Z,38.23
2024-02-01T07:39:54.929Z,42.03
2024-02-01T07:42:40.997Z,44.27
2024-02-01T07:45:31.895Z,43.53
2024-02-01T07:48:17.777Z,49.20
2024-02-01T07:51:03.287Z,34.77
2024-02-01T07:53:50.208Z,32.70
2024-02-01T07:56:31.873Z,57.57
2024-02-01T07:59:09.376Z,45.13
2024-02-01T08:01:49.662Z,34.40
2024-02-01T08:04:19.458Z,58.63
2024-02-01T08:07:04.911Z,49.30
2024-02-01T08:09:34.755Z,50.17
2024-02-01T08:12:07.444Z,40.30
2024-02-01T08:14:35.813Z,42.93
2024-02-01T08:17:06.046Z,34.73
2024-02-01T08:19:40.359Z,35.77
2024-02-01T08:22:10.243Z,28.93
2024-02-01T08:24:40.067Z,27.83
2024-02-01T08:27:15.401Z,29.27
2024-02-01T08:29:43.717Z,37.37
2024-02-01T08:32:11.781Z,31.60
2024-02-01T08:34:40.757Z,37.90
2024-02-01T08:37:10.637Z,35.67
2024-02-01T08:39:46.899Z,26.57
2024-02-01T08:42:15.277Z,57.43
2024-02-01T08:44:45.515Z,36.23
2024-02-01T08:47:15.246Z,58.60
2024-02-01T08:49:43.221Z,54.57
2024-02-01T08:52:15.551Z,35.90
2024-02-01T08:54:48.344Z,32.20
2024-02-01T08:57:19.104Z,29.80
2024-02-01T08:59:47.096Z,37.27
2024-02-01T09:02:17.008Z,33.20
2024-02-01T09:04:45.246Z,28.37
2024-02-01T09:07:13.666Z,41.87
2024-02-01T09:09:42.223Z,31.60
2024-02-01T09:12:17.784Z,26.77
2024-02-01T09:14:46.496Z,25.20
2024-02-01T09:17:14.288Z,30.20
2024-02-01T09:19:43.946Z,18.03
2024-02-01T09:22:11.827Z,26.70
2024-02-01T09:24:42.419Z,22.30
2024-02-01T09:27:13.518Z,22.33
2024-02-01T09:29:41.749Z,16.27
2024-02-01T09:32:11.541Z,17.97
2024-02-01T09:34:40.210Z,22.40
2024-02-01T09:37:08.076Z,36.63
2024-02-01T09:39:40.488Z,24.47
2024-02-01T09:42:12.597Z,16.53
2024-02-01T09:44:44.072Z,19.20
2024-02-01T09:47:13.580Z,25.00
2024-02-01T09:49:41.703Z,23.70
2024-02-01T09:52:11.030Z,15.90
2024-02-01T09:54:38.948Z,13.10
2024-02-01T09:57:15.633Z,23.60
2024-02-01T09:59:45.296Z,11.63
2024-02-01T10:02:14.832Z,17.90
2024-02-01T10:04:42.870Z,11.60
2024-02-01T10:07:11.607Z,14.33
2024-02-01T10:09:39.946Z,11.63
2024-02-01T10:12:08.456Z,12.80
2024-02-01T10:14:40.271Z,8.70
2024-02-01T10:17:13.322Z,14.80
2024-02-01T10:19:42.511Z,13.50
2024-02-01T10:22:12.497Z,11.30
2024-02-01T10:24:47.512Z,12.07
2024-02-01T10:27:16.158Z,12.93
2024-02-01T10:29:45.532Z,8.10
2024-02-01T10:32:16.257Z,14.20
2024-02-01T10:34:46.287Z,13.50
2024-02-01T10:37:14.723Z,9.50
2024-02-01T10:39:51.001Z,33.00
2024-02-01T10:42:23.540Z,8.73
2024-02-01T10:44:56.133Z,12.37
2024-02-01T10:47:28.693Z,10.57
2024-02-01T10:49:57.301Z,14.10
2024-02-01T10:52:28.364Z,19.13
2024-02-01T10:54:57.290Z,8.87
2024-02-01T10:57:25.619Z,15.43
2024-02-01T10:59:54.736Z,15.40
2024-02-01T11:02:24.426Z,10.83
2024-02-01T11:04:55.696Z,13.83
2024-02-01T11:07:25.904Z,9.60
2024-02-01T11:09:54.475Z,10.87
2024-02-01T11:12:23.779Z,11.20
2024-02-01T11:14:53.911Z,7.40
2024-02-01T11:17:22.514Z,15.10
2024-02-01T11:19:52.032Z,10.50
2024-02-01T11:22:22.156Z,15.00
2024-02-01T11:24:50.413Z,7.00
2024-02-01T11:27:20.832Z,10.63
2024-02-01T11:29:50.145Z,8.43
2024-02-01T11:32:18.822Z,12.53
2024-02-01T11:34:51.304Z,13.23
2024-02-01T11:37:20.058Z,13.60
2024-02-01T11:39:50.441Z,6.40
2024-02-01T11:42:30.905Z,14.30
2024-02-01T11:45:03.637Z,8.80
2024-02-01T11:47:34.245Z,15.00
2024-02-01T11:50:02.887Z,8.47
2024-02-01T11:52:37.238Z,9.60
2024-02-01T11:55:09.275Z,15.83
2024-02-01T11:57:37.079Z,10.17
2024-02-01T12:00:14.234Z,8.57
2024-02-01T12:02:46.985Z,11.80
2024-02-01T12:05:19.443Z,10.07
2024-02-01T12:07:47.372Z,10.97
2024-02-01T12:10:18.627Z,24.60
2024-02-01T12:12:47.256Z,12.30
2024-02-01T12:15:15.754Z,18.20
2024-02-01T12:17:45.428Z,13.67
2024-02-01T12:20:14.654Z,10.17
2024-02-01T12:22:45.821Z,10.27
2024-02-01T12:25:18.173Z,16.27
2024-02-01T12:27:47.297Z,12.10
2024-02-01T12:30:16.854Z,11.10
2024-02-01T12:32:46.326Z,11.47
2024-02-01T12:35:16.334Z,12.97
2024-02-01T12:37:44.263Z,24.20
2024-02-01T12:40:13.545Z,14.33
2024-02-01T12:42:46.517Z,10.97
2024-02-01T12:45:20.015Z,12.73
2024-02-01T12:47:49.941Z,12.60
2024-02-01T12:50:18.918Z,17.10
2024-02-01T12:52:47.507Z,19.00
2024-02-01T12:55:18.374Z,13.17
2024-02-01T12:57:50.059Z,15.80
2024-02-01T13:00:18.513Z,12.93
2024-02-01T13:02:46.907Z,21.07
2024-02-01T13:05:15.118Z,16.83
2024-02-01T13:07:42.844Z,9.40
2024-02-01T13:10:16.481Z,8.80
2024-02-01T13:12:56.342Z,10.77
2024-02-01T13:15:27.827Z,10.00
2024-02-01T13:17:58.689Z,16.47
2024-02-01T13:20:28.147Z,13.53
2024-02-01T13:22:56.189Z,12.70
2024-02-01T13:25:24.474Z,20.87
2024-02-01T13:27:54.193Z,14.43
2024-02-01T13:30:23.728Z,12.03
2024-02-01T13:32:53.921Z,19.80
2024-02-01T13:35:22.138Z,19.40
2024-02-01T13:37:52.553Z,15.73
2024-02-01T13:40:20.592Z,11.13
2024-02-01T13:42:48.557Z,13.60
2024-02-01T13:45:18.413Z,8.90
2024-02-01T13:47:53.318Z,22.03
2024-02-01T13:50:23.826Z,14.37
2024-02-01T13:52:55.599Z,14.93
2024-02-01T13:55:24.027Z,13.60
2024-02-01T13:57:51.787Z,10.67
2024-02-01T14:00:20.721Z,25.10
2024-02-01T14:02:49.241Z,16.27
2024-02-01T14:05:18.260Z,18.17
2024-02-01T14:07:49.666Z,9.23
2024-02-01T14:10:18.245Z,13.33
2024-02-01T14:12:46.224Z,12.17
2024-02-01T14:15:14.977Z,44.07
2024-02-01T14:17:42.937Z,17.57
2024-02-01T14:20:15.224Z,17.70
2024-02-01T14:22:43.818Z,7.33
2024-02-01T14:25:13.360Z,14.57
2024-02-01T14:27:41.598Z,15.43
2024-02-01T14:30:11.917Z,14.20
2024-02-01T14:32:41.555Z,20.10
2024-02-01T14:35:14.990Z,18.47
2024-02-01T14:37:43.408Z,13.30
2024-02-01T14:40:12.693Z,19.00
2024-02-01T14:42:42.720Z,17.13
2024-02-01T14:45:11.081Z,17.20
2024-02-01T14:47:39.180Z,17.17
2024-02-01T14:50:07.798Z,14.77
2024-02-01T14:52:36.139Z,18.93
2024-02-01T14:55:03.903Z,18.40
2024-02-01T14:57:31.888Z,17.00
2024-02-01T15:00:01.125Z,7.30
2024-02-01T15:02:30.183Z,13.43
2024-02-01T15:04:58.238Z,16.73
2024-02-01T15:07:26.858Z,18.43
2024-02-01T15:09:55.493Z,17.87
2024-02-01T15:12:23.750Z,18.00
2024-02-01T15:14:53.797Z,16.90
2024-02-01T15:17:23.294Z,19.20
2024-02-01T15:19:51.183Z,18.23
2024-02-01T15:22:19.161Z,26.47
2024-02-01T15:24:46.999Z,19.80
2024-02-01T15:27:16.237Z,17.50
2024-02-01T15:29:45.066Z,11.10
2024-02-01T15:32:17.461Z,36.70
2024-02-01T15:34:47.683Z,18.93
2024-02-01T15:37:19.422Z,20.17
2024-02-01T15:39:47.735Z,16.23
2024-02-01T15:42:15.814Z,19.37
2024-02-01T15:44:49.866Z,15.33
2024-02-01T15:47:18.287Z,11.67
2024-02-01T15:49:48.068Z,18.63
2024-02-01T15:52:16.795Z,16.03
2024-02-01T15:54:44.496Z,13.87
2024-02-01T15:57:12.381Z,16.10
2024-02-01T15:59:40.216Z,9.40
2024-02-01T16:02:08.164Z,18.27
2024-02-01T16:04:37.307Z,28.83
2024-02-01T16:07:07.149Z,26.67
2024-02-01T16:09:40.712Z,25.77
2024-02-01T16:12:09.007Z,14.43
2024-02-01T16:14:36.845Z,11.17
2024-02-01T16:17:05.380Z,27.73
2024-02-01T16:19:33.411Z,92.43
2024-02-01T16:22:01.814Z,30.07
2024-02-01T16:24:55.267Z,25.97
2024-02-01T16:27:43.108Z,13.40
2024-02-01T16:30:28.977Z,19.50
2024-02-01T16:32:58.016Z,34.03
2024-02-01T16:35:42.818Z,25.23
2024-02-01T16:38:15.150Z,20.87
2024-02-01T16:40:47.330Z,50.17
2024-02-01T16:43:20.917Z,14.87
2024-02-01T16:45:50.656Z,18.10
2024-02-01T16:48:18.581Z,48.63
2024-02-01T16:50:48.613Z,27.10
2024-02-01T16:53:26.342Z,19.13
2024-02-01T16:55:56.091Z,19.47
2024-02-01T16:58:41.225Z,20.27
2024-02-01T17:01:16.036Z,16.40
2024-02-01T17:03:44.688Z,28.27
2024-02-01T17:06:14.193Z,14.87
2024-02-01T17:08:45.570Z,18.30
2024-02-01T17:11:16.529Z,15.30
2024-02-01T17:13:44.928Z,15.50
2024-02-01T17:16:20.416Z,15.77
2024-02-01T17:18:48.628Z,49.07
2024-02-01T17:21:17.301Z,36.87
2024-02-01T17:23:45.813Z,34.30
2024-02-01T17:26:17.264Z,17.80
2024-02-01T17:28:45.103Z,30.70
2024-02-01T17:31:15.899Z,17.10
2024-02-01T17:33:50.097Z,17.70
2024-02-01T17:36:19.325Z,14.77
2024-02-01T17:38:51.309Z,16.43
2024-02-01T17:41:22.010Z,35.77
2024-02-01T17:43:50.485Z,17.97
2024-02-01T17:46:37.161Z,18.13
2024-02-01T17:49:04.995Z,20.67
2024-02-01T17:51:35.091Z,40.17
2024-02-01T17:54:06.771Z,24.57
2024-02-01T17:56:36.255Z,20.73
2024-02-01T17:59:05.174Z,20.20
2024-02-01T18:01:35.724Z,18.00
2024-02-01T18:04:06.889Z,14.50
2024-02-01T18:06:39.961Z,29.73
2024-02-01T18:09:08.532Z,51.97
2024-02-01T18:11:41.376Z,15.27
2024-02-01T18:14:09.267Z,16.87
2024-02-01T18:16:40.763Z,18.87
2024-02-01T18:19:10.347Z,35.33
2024-02-01T18:21:42.007Z,30.50
2024-02-01T18:24:19.444Z,26.07
2024-02-01T18:26:48.788Z,20.03
2024-02-01T18:29:24.648Z,13.20
2024-02-01T18:31:52.480Z,17.67
2024-02-01T18:34:28.940Z,20.63
2024-02-01T18:36:57.171Z,19.20
2024-02-01T18:39:31.626Z,12.13
2024-02-01T18:42:01.106Z,17.53
2024-02-01T18:44:30.529Z,15.00
2024-02-01T18:47:01.673Z,19.80
2024-02-01T18:49:35.574Z,42.33
2024-02-01T18:52:06.383Z,17.13
2024-02-01T18:54:35.155Z,17.07
2024-02-01T18:57:07.112Z,20.00
2024-02-01T18:59:48.365Z,9.87
2024-02-01T19:02:23.924Z,17.73
2024-02-01T19:04:55.608Z,36.97
2024-02-01T19:07:23.999Z,21.53
2024-02-01T19:09:51.823Z,13.63
2024-02-01T19:12:29.405Z,14.27
2024-02-01T19:14:58.747Z,15.53
2024-02-01T19:17:33.764Z,18.20
2024-02-01T19:20:06.748Z,19.40
2024-02-01T19:22:37.151Z,14.33
2024-02-01T19:25:06.084Z,16.20
2024-02-01T19:27:40.862Z,16.77
2024-02-01T19:30:12.468Z,17.80
2024-02-01T19:32:44.965Z,16.20
2024-02-01T19:35:16.619Z,24.10
2024-02-01T19:38:10.881Z,17.50
2024-02-01T19:40:39.439Z,24.23
2024-02-01T19:43:08.631Z,13.00
2024-02-01T19:45:37.371Z,21.07
2024-02-01T19:48:06.594Z,17.97
2024-02-01T19:50:34.546Z,11.27
2024-02-01T19:53:02.455Z,18.13
2024-02-01T19:55:31.476Z,12.70
2024-02-01T19:57:59.540Z,56.93
2024-02-01T20:00:30.219Z,57.67
2024-02-01T20:02:58.289Z,19.77
2024-02-01T20:05:26.517Z,20.63
2024-02-01T20:07:54.446Z,17.20
2024-02-01T20:10:22.765Z,14.40
2024-02-01T20:12:50.518Z,14.47
2024-02-01T20:15:18.712Z,19.57
2024-02-01T20:17:48.181Z,24.67
2024-02-01T20:20:20.824Z,23.73
2024-02-01T20:22:49.394Z,24.33
2024-02-01T20:25:21.476Z,25.30
2024-02-01T20:27:52.737Z,24.53
2024-02-01T20:30:21.608Z,22.80
2024-02-01T20:32:52.678Z,13.77
2024-02-01T20:35:21.048Z,18.23
2024-02-01T20:37:51.343Z,14.43
2024-02-01T20:40:28.809Z,12.47
2024-02-01T20:42:56.709Z,22.90
2024-02-01T20:45:24.641Z,25.03
2024-02-01T20:47:55.040Z,23.07
2024-02-01T20:50:33.792Z,18.20
2024-02-01T20:53:32.864Z,17.70
2024-02-01T20:56:00.758Z,21.80
2024-02-01T20:58:44.170Z,12.87
2024-02-01T21:01:15.867Z,15.57
2024-02-01T21:03:46.575Z,18.93
2024-02-01T21:06:14.464Z,14.10
2024-02-01T21:08:43.697Z,16.50
2024-02-01T21:11:39.352Z,16.43
2024-02-01T21:14:08.069Z,12.37
2024-02-01T21:16:49.860Z,20.47
2024-02-01T21:19:22.180Z,24.40
2024-02-01T21:21:50.960Z,14.00
2024-02-01T21:24:18.955Z,21.60
2024-02-01T21:26:47.345Z,20.53
2024-02-01T21:29:17.995Z,27.37
2024-02-01T21:31:57.438Z,18.70
2024-02-01T21:34:29.894Z,21.00
2024-02-01T21:37:05.403Z,23.37
2024-02-01T21:39:58.830Z,23.80
2024-02-01T21:42:54.610Z,11.73
2024-02-01T21:45:24.850Z,16.70
2024-02-01T21:47:54.165Z,19.27
2024-02-01T21:50:28.003Z,27.47
2024-02-01T21:52:56.732Z,16.30
2024-02-01T21:55:26.691Z,32.07
2024-02-01T21:57:55.960Z,17.63
2024-02-01T22:00:23.988Z,34.70
2024-02-01T22:02:52.095Z,22.50
2024-02-01T22:05:20.383Z,11.77
2024-02-01T22:07:50.305Z,15.20
2024-02-01T22:10:18.581Z,16.93
2024-02-01T22:12:46.678Z,18.67
2024-02-01T22:15:14.759Z,15.10
2024-02-01T22:17:42.698Z,36.40
2024-02-01T22:20:11.548Z,34.27
2024-02-01T22:22:40.945Z,29.93
2024-02-01T22:25:11.417Z,27.30
2024-02-01T22:27:39.917Z,24.40
2024-02-01T22:30:09.448Z,24.80
2024-02-01T22:32:41.462Z,31.40
2024-02-01T22:35:10.746Z,16.03
2024-02-01T22:37:39.333Z,24.17
2024-02-01T22:40:08.328Z,22.80
2024-02-01T22:42:37.628Z,20.80
2024-02-01T22:45:06.186Z,24.33
2024-02-01T22:47:36.316Z,34.47
2024-02-01T22:50:04.965Z,16.90
2024-02-01T22:52:32.710Z,17.43
2024-02-01T22:55:01.485Z,16.90
2024-02-01T22:57:29.360Z,22.87
2024-02-01T22:59:59.000Z,19.17
2024-02-01T23:02:28.121Z,22.83
2024-02-01T23:04:56.009Z,23.90
2024-02-01T23:07:25.917Z,20.63
2024-02-01T23:09:54.593Z,20.57
2024-02-01T23:12:22.532Z,27.83
2024-02-01T23:14:50.519Z,26.23
2024-02-01T23:17:20.564Z,26.40
2024-02-01T23:19:48.450Z,22.93
2024-02-01T23:22:16.657Z,26.27
2024-02-01T23:24:45.344Z,32.47
2024-02-01T23:27:13.197Z,17.33
2024-02-01T23:29:43.182Z,25.83
2024-02-01T23:32:11.438Z,17.90
2024-02-01T23:34:41.224Z,19.00
2024-02-01T23:37:09.346Z,17.73
2024-02-01T23:39:37.688Z,15.10
2024-02-01T23:42:05.902Z,16.17
2024-02-01T23:44:33.800Z,22.90
2024-02-01T23:47:01.974Z,14.30
2024-02-01T23:49:32.130Z,18.10
2024-02-01T23:52:02.102Z,23.23
2024-02-01T23:54:30.025Z,21.50
2024-02-01T23:56:57.983Z,23.50
2024-02-01T23:59:27.231Z,23.53
